createdAt,value
2023-04-05T00:02:14.068Z,71.26
2023-04-05T00:04:50.217Z,71.59
2023-04-05T00:07:17.457Z,71.62
2023-04-05T00:09:43.950Z,71.55
2023-04-05T00:12:10.681Z,71.48
2023-04-05T00:14:37.184Z,71.89
2023-04-05T00:17:04.224Z,71.86
2023-04-05T00:19:34.033Z,72.34
2023-04-05T00:22:00.755Z,71.91
2023-04-05T00:24:29.414Z,72.20
2023-04-05T00:26:56.828Z,72.11
2023-04-05T00:29:23.364Z,72.52
2023-04-05T00:31:50.512Z,72.55
2023-04-05T00:34:16.993Z,72.77
2023-04-05T00:36:43.414Z,72.73
2023-04-05T00:39:09.900Z,72.83
2023-04-05T00:41:38.700Z,73.52
2023-04-05T00:44:05.943Z,73.47
2023-04-05T00:46:35.029Z,73.50
2023-04-05T00:49:01.683Z,73.38
2023-04-05T00:51:28.520Z,73.23
2023-04-05T00:53:55.389Z,73.61
2023-04-05T00:56:25.295Z,73.84
2023-04-05T00:58:54.224Z,73.76
2023-04-05T01:01:23.520Z,73.81
2023-04-05T01:03:54.075Z,73.96
2023-04-05T01:06:35.922Z,74.45
2023-04-05T01:09:08.643Z,74.45
2023-04-05T01:11:39.248Z,74.43
2023-04-05T01:14:06.240Z,73.72
2023-04-05T01:16:32.728Z,73.80
2023-04-05T01:18:59.439Z,74.07
2023-04-05T01:21:37.866Z,74.75
2023-04-05T01:24:16.499Z,74.17
2023-04-05T01:27:08.024Z,74.47
2023-04-05T01:29:56.057Z,74.80
2023-04-05T01:32:46.465Z,74.72
2023-04-05T01:35:29.604Z,75.02
2023-04-05T01:38:01.752Z,74.40
2023-04-05T01:40:29.241Z,74.74
2023-04-05T01:42:55.861Z,74.72
2023-04-05T01:45:22.320Z,75.26
2023-04-05T01:47:48.787Z,75.17
2023-04-05T01:50:15.825Z,75.47
2023-04-05T01:52:42.261Z,75.29
2023-04-05T01:55:08.852Z,75.26
2023-04-05T01:57:35.402Z,74.80
2023-04-05T02:00:01.912Z,75.10
2023-04-05T02:02:28.398Z,75.38
2023-04-05T02:04:54.861Z,75.20
2023-04-05T02:07:27.316Z,75.78
2023-04-05T02:09:53.881Z,74.90
2023-04-05T02:12:20.353Z,75.03
2023-04-05T02:14:46.754Z,75.46
2023-04-05T02:17:13.354Z,75.53
2023-04-05T02:19:45.748Z,76.11
2023-04-05T02:22:12.538Z,75.97
2023-04-05T02:24:39.021Z,76.44
2023-04-05T02:27:05.543Z,76.50
2023-04-05T02:29:31.961Z,76.79
2023-04-05T02:31:58.735Z,76.96
2023-04-05T02:34:25.848Z,77.03
2023-04-05T02:36:53.067Z,76.91
2023-04-05T02:39:19.686Z,77.20
2023-04-05T02:41:46.561Z,77.17
2023-04-05T02:44:13.653Z,77.14
2023-04-05T02:46:40.588Z,77.11
2023-04-05T02:49:09.784Z,76.94
2023-04-05T02:51:36.296Z,76.45
2023-04-05T02:54:03.372Z,76.78
2023-04-05T02:56:30.206Z,76.81
2023-04-05T02:58:56.631Z,76.52
2023-04-05T03:01:24.006Z,76.48
2023-04-05T03:03:51.035Z,76.27
2023-04-05T03:06:17.607Z,76.39
2023-04-05T03:08:44.149Z,76.33
2023-04-05T03:11:11.809Z,76.24
2023-04-05T03:13:38.726Z,76.17
2023-04-05T03:16:05.942Z,76.13
2023-04-05T03:18:32.780Z,76.64
2023-04-05T03:20:59.438Z,76.94
2023-04-05T03:23:29.667Z,76.81
2023-04-05T03:25:59.872Z,76.81
2023-04-05T03:28:26.455Z,76.43
2023-04-05T03:30:53.074Z,76.55
2023-04-05T03:33:20.529Z,76.90
2023-04-05T03:35:47.689Z,77.36
2023-04-05T03:38:14.202Z,77.83
2023-04-05T03:40:40.780Z,77.52
2023-04-05T03:43:07.184Z,77.71
2023-04-05T03:45:34.082Z,77.62
2023-04-05T03:48:01.061Z,77.39
2023-04-05T03:50:27.592Z,77.46
2023-04-05T03:52:54.254Z,77.41
2023-04-05T03:55:20.869Z,77.17
2023-04-05T03:57:47.679Z,77.17
2023-04-05T04:00:14.698Z,77.06
2023-04-05T04:02:43.617Z,77.26
2023-04-05T04:05:11.254Z,76.70
2023-04-05T04:07:38.003Z,76.70
2023-04-05T04:10:05.598Z,76.95
2023-04-05T04:12:32.168Z,77.02
2023-04-05T04:14:58.909Z,77.13
2023-04-05T04:17:34.436Z,77.87
2023-04-05T04:20:01.062Z,77.49
2023-04-05T04:22:33.003Z,77.68
2023-04-05T04:25:02.674Z,77.59
2023-04-05T04:27:30.440Z,77.44
2023-04-05T04:30:01.852Z,77.62
2023-04-05T04:32:47.675Z,77.73
2023-04-05T04:35:18.214Z,77.73
2023-04-05T04:37:52.856Z,78.14
2023-04-05T04:40:19.345Z,78.03
2023-04-05T04:42:48.717Z,78.35
2023-04-05T04:45:18.079Z,78.31
2023-04-05T04:47:45.403Z,78.51
2023-04-05T04:50:12.108Z,78.93
2023-04-05T04:52:40.219Z,78.95
2023-04-05T04:55:09.182Z,79.31
2023-04-05T04:57:36.007Z,79.01
2023-04-05T05:00:02.482Z,79.46
2023-04-05T05:02:31.238Z,79.76
2023-04-05T05:04:58.240Z,79.69
2023-04-05T05:07:24.695Z,79.84
2023-04-05T05:09:52.433Z,79.96
2023-04-05T05:12:19.350Z,79.85
2023-04-05T05:14:45.737Z,79.82
2023-04-05T05:17:12.322Z,79.83
2023-04-05T05:19:38.980Z,80.37
2023-04-05T05:22:05.871Z,80.27
2023-04-05T05:24:32.449Z,80.03
2023-04-05T05:26:58.861Z,80.44
2023-04-05T05:29:25.602Z,80.12
2023-04-05T05:31:52.149Z,80.11
2023-04-05T05:34:19.298Z,80.52
2023-04-05T05:36:46.352Z,80.04
2023-04-05T05:39:12.909Z,79.89
2023-04-05T05:41:39.509Z,79.79
2023-04-05T05:44:06.764Z,80.02
2023-04-05T05:46:33.371Z,79.85
2023-04-05T05:48:59.801Z,79.87
2023-04-05T05:51:26.375Z,79.86
2023-04-05T05:53:52.819Z,80.23
2023-04-05T05:56:19.316Z,80.42
2023-04-05T05:58:46.376Z,80.76
2023-04-05T06:01:13.024Z,80.42
2023-04-05T06:03:39.641Z,80.79
2023-04-05T06:06:08.368Z,80.32
2023-04-05T06:08:34.811Z,80.36
2023-04-05T06:11:05.045Z,80.05
2023-04-05T06:13:31.361Z,79.56
2023-04-05T06:15:57.950Z,79.42
2023-04-05T06:18:24.393Z,78.28
2023-04-05T06:20:50.998Z,77.50
2023-04-05T06:23:17.393Z,76.07
2023-04-05T06:25:43.973Z,75.44
2023-04-05T06:28:10.524Z,75.04
2023-04-05T06:30:37.217Z,74.24
2023-04-05T06:33:03.866Z,73.40
2023-04-05T06:35:30.588Z,73.40
2023-04-05T06:37:57.111Z,72.35
2023-04-05T06:40:23.597Z,71.83
2023-04-05T06:42:50.070Z,71.05
2023-04-05T06:45:16.725Z,70.92
2023-04-05T06:47:43.293Z,69.82
2023-04-05T06:50:10.535Z,68.61
2023-04-05T06:52:39.122Z,67.62
2023-04-05T06:55:06.435Z,66.40
2023-04-05T06:57:32.929Z,65.37
2023-04-05T06:59:59.411Z,63.39
2023-04-05T07:02:26.068Z,62.11
2023-04-05T07:04:53.315Z,61.27
2023-04-05T07:07:19.776Z,58.92
2023-04-05T07:09:46.248Z,57.21
2023-04-05T07:12:12.796Z,55.79
2023-04-05T07:14:39.454Z,56.14
2023-04-05T07:17:07.033Z,55.59
2023-04-05T07:19:33.916Z,55.27
2023-04-05T07:22:01.123Z,55.42
2023-04-05T07:24:27.583Z,55.28
2023-04-05T07:26:54.304Z,53.62
2023-04-05T07:29:20.913Z,53.85
2023-04-05T07:31:47.353Z,53.81
2023-04-05T07:34:14.044Z,52.56
2023-04-05T07:36:40.965Z,52.96
2023-04-05T07:39:07.530Z,53.69
2023-04-05T07:41:35.531Z,52.64
2023-04-05T07:44:02.084Z,51.51
2023-04-05T07:46:29.817Z,51.06
2023-04-05T07:48:56.528Z,48.22
2023-04-05T07:51:22.954Z,50.21
2023-04-05T07:53:49.392Z,47.85
2023-04-05T07:56:15.967Z,47.75
2023-04-05T07:58:42.413Z,47.55
2023-04-05T08:01:10.542Z,46.78
2023-04-05T08:03:39.652Z,47.12
2023-04-05T08:06:11.520Z,46.72
2023-04-05T08:08:40.983Z,45.92
2023-04-05T08:11:07.446Z,46.09
2023-04-05T08:13:34.019Z,46.04
2023-04-05T08:16:02.046Z,46.38
2023-04-05T08:18:29.779Z,45.67
2023-04-05T08:20:56.707Z,45.66
2023-04-05T08:23:23.164Z,46.13
2023-04-05T08:25:50.075Z,45.56
2023-04-05T08:28:16.559Z,46.08
2023-04-05T08:30:43.229Z,46.00
2023-04-05T08:33:10.036Z,46.35
2023-04-05T08:35:37.221Z,46.70
2023-04-05T08:38:04.876Z,46.56
2023-04-05T08:40:43.907Z,46.88
2023-04-05T08:43:28.515Z,45.72
2023-04-05T08:45:58.816Z,46.07
2023-04-05T08:48:28.863Z,46.03
2023-04-05T08:50:55.863Z,44.99
2023-04-05T08:53:22.625Z,45.10
2023-04-05T08:55:53.624Z,44.67
2023-04-05T08:58:22.494Z,43.04
2023-04-05T09:00:50.963Z,43.22
2023-04-05T09:03:23.403Z,42.40
2023-04-05T09:05:52.913Z,42.32
2023-04-05T09:08:21.374Z,41.31
2023-04-05T09:10:50.368Z,41.80
2023-04-05T09:13:16.842Z,41.18
2023-04-05T09:15:43.887Z,40.52
2023-04-05T09:18:23.173Z,40.29
2023-04-05T09:21:03.823Z,39.83
2023-04-05T09:23:30.399Z,40.54
2023-04-05T09:25:56.967Z,39.97
2023-04-05T09:28:23.482Z,38.94
2023-04-05T09:30:49.983Z,38.50
2023-04-05T09:33:21.019Z,38.62
2023-04-05T09:35:51.392Z,37.84
2023-04-05T09:38:17.893Z,37.41
2023-04-05T09:40:46.508Z,36.30
2023-04-05T09:43:33.672Z,36.36
2023-04-05T09:46:00.454Z,35.93
2023-04-05T09:48:57.605Z,37.52
2023-04-05T09:51:24.252Z,34.85
2023-04-05T09:54:00.526Z,34.75
2023-04-05T09:56:28.486Z,34.02
2023-04-05T09:59:16.987Z,35.24
2023-04-05T10:01:51.263Z,34.15
2023-04-05T10:04:19.603Z,34.46
2023-04-05T10:06:46.081Z,33.61
2023-04-05T10:09:15.096Z,33.62
2023-04-05T10:11:43.893Z,33.11
2023-04-05T10:14:10.621Z,32.36
2023-04-05T10:17:10.276Z,33.46
2023-04-05T10:20:07.269Z,35.23
2023-04-05T10:22:39.177Z,34.16
2023-04-05T10:25:12.937Z,33.90
2023-04-05T10:27:46.973Z,34.63
2023-04-05T10:30:15.650Z,34.36
2023-04-05T10:33:01.786Z,35.33
2023-04-05T10:35:40.346Z,34.75
2023-04-05T10:38:06.904Z,34.04
2023-04-05T10:40:35.038Z,33.56
2023-04-05T10:43:03.825Z,32.89
2023-04-05T10:45:35.148Z,32.74
2023-04-05T10:48:34.222Z,34.24
2023-04-05T10:51:01.712Z,32.25
2023-04-05T10:53:30.688Z,32.12
2023-04-05T10:55:58.322Z,32.02
2023-04-05T10:58:26.856Z,31.65
2023-04-05T11:00:54.692Z,31.89
2023-04-05T11:03:51.393Z,32.42
2023-04-05T11:06:24.021Z,32.23
2023-04-05T11:08:57.065Z,32.71
2023-04-05T11:11:24.973Z,33.35
2023-04-05T11:13:56.963Z,34.03
2023-04-05T11:16:38.563Z,34.31
2023-04-05T11:19:05.243Z,33.36
2023-04-05T11:21:31.888Z,34.16
2023-04-05T11:24:08.226Z,34.24
2023-04-05T11:26:40.449Z,34.42
2023-04-05T11:29:07.847Z,34.85
2023-04-05T11:31:34.387Z,34.92
2023-04-05T11:34:12.761Z,34.26
2023-04-05T11:36:45.837Z,34.35
2023-04-05T11:39:18.387Z,33.29
2023-04-05T11:41:52.670Z,32.99
2023-04-05T11:44:19.518Z,32.58
2023-04-05T11:46:46.875Z,31.61
2023-04-05T11:49:14.231Z,31.85
2023-04-05T11:51:48.496Z,31.84
2023-04-05T11:54:27.670Z,31.19
2023-04-05T11:56:54.054Z,31.11
2023-04-05T11:59:21.548Z,31.05
2023-04-05T12:01:58.357Z,31.60
2023-04-05T12:04:24.786Z,32.52
2023-04-05T12:07:09.170Z,33.53
2023-04-05T12:09:35.871Z,34.24
2023-04-05T12:12:02.755Z,34.63
2023-04-05T12:14:29.499Z,35.85
2023-04-05T12:16:55.888Z,35.98
2023-04-05T12:19:22.893Z,36.14
2023-04-05T12:21:49.373Z,36.56
2023-04-05T12:24:15.923Z,36.61
2023-04-05T12:26:42.936Z,37.32
2023-04-05T12:29:09.419Z,37.14
2023-04-05T12:31:41.321Z,37.68
2023-04-05T12:34:09.835Z,37.41
2023-04-05T12:36:37.339Z,37.80
2023-04-05T12:39:07.780Z,38.05
2023-04-05T12:41:35.141Z,38.69
2023-04-05T12:44:27.992Z,38.72
2023-04-05T12:47:00.690Z,38.86
2023-04-05T12:49:27.807Z,38.25
2023-04-05T12:51:54.207Z,38.01
2023-04-05T12:54:23.032Z,37.95
2023-04-05T12:56:54.457Z,37.09
2023-04-05T12:59:22.056Z,36.37
2023-04-05T13:01:48.904Z,35.09
2023-04-05T13:04:16.857Z,35.21
2023-04-05T13:06:46.996Z,34.39
2023-04-05T13:09:13.454Z,33.61
2023-04-05T13:11:39.896Z,33.07
2023-04-05T13:14:06.371Z,31.97
2023-04-05T13:16:32.873Z,33.13
2023-04-05T13:19:09.196Z,30.84
2023-04-05T13:21:35.883Z,30.46
2023-04-05T13:24:02.939Z,30.28
2023-04-05T13:26:29.808Z,28.86
2023-04-05T13:28:56.281Z,28.54
2023-04-05T13:31:22.757Z,28.58
2023-04-05T13:33:49.235Z,30.08
2023-04-05T13:36:18.329Z,29.36
2023-04-05T13:38:44.732Z,30.52
2023-04-05T13:41:11.364Z,33.26
2023-04-05T13:43:37.953Z,34.19
2023-04-05T13:46:04.647Z,34.87
2023-04-05T13:48:31.371Z,35.09
2023-04-05T13:50:57.881Z,35.75
2023-04-05T13:53:26.019Z,36.43
2023-04-05T13:55:53.724Z,37.13
2023-04-05T13:58:20.311Z,36.69
2023-04-05T14:00:47.314Z,37.75
2023-04-05T14:03:13.848Z,38.24
2023-04-05T14:05:40.295Z,37.63
2023-04-05T14:08:06.935Z,38.06
2023-04-05T14:10:33.478Z,38.24
2023-04-05T14:13:00.178Z,37.93
2023-04-05T14:15:27.804Z,37.91
2023-04-05T14:17:54.362Z,38.05
2023-04-05T14:20:21.054Z,38.36
2023-04-05T14:22:47.594Z,37.66
2023-04-05T14:25:14.195Z,37.38
2023-04-05T14:27:42.414Z,37.04
2023-04-05T14:30:11.096Z,37.25
2023-04-05T14:32:37.920Z,36.90
2023-04-05T14:35:04.690Z,37.39
2023-04-05T14:37:31.225Z,37.35
2023-04-05T14:39:57.684Z,36.60
2023-04-05T14:42:31.314Z,36.58
2023-04-05T14:45:04.215Z,37.61
2023-04-05T14:47:31.097Z,37.65
2023-04-05T14:49:57.718Z,37.66
2023-04-05T14:52:24.316Z,37.89
2023-04-05T14:54:51.083Z,37.39
2023-04-05T14:57:17.649Z,37.31
2023-04-05T14:59:44.195Z,37.30
2023-04-05T15:02:11.385Z,37.30
2023-04-05T15:04:38.035Z,37.28
2023-04-05T15:07:04.504Z,37.46
2023-04-05T15:09:31.131Z,37.28
2023-04-05T15:11:57.666Z,37.36
2023-04-05T15:14:31.690Z,38.44
2023-04-05T15:16:59.001Z,39.05
2023-04-05T15:19:25.740Z,39.82
2023-04-05T15:21:52.289Z,39.96
2023-04-05T15:24:18.846Z,39.98
2023-04-05T15:26:45.442Z,40.28
2023-04-05T15:29:11.973Z,40.20
2023-04-05T15:31:39.403Z,40.20
2023-04-05T15:34:08.280Z,40.84
2023-04-05T15:36:36.157Z,41.39
2023-04-05T15:39:04.839Z,41.21
2023-04-05T15:41:33.800Z,41.25
2023-04-05T15:44:01.199Z,41.54
2023-04-05T15:46:29.147Z,41.32
2023-04-05T15:48:56.142Z,40.96
2023-04-05T15:51:22.877Z,40.91
2023-04-05T15:53:49.615Z,41.26
2023-04-05T15:56:16.201Z,41.15
2023-04-05T15:58:42.794Z,41.19
2023-04-05T16:01:09.374Z,41.72
2023-04-05T16:03:36.169Z,41.39
2023-04-05T16:06:02.895Z,40.80
2023-04-05T16:08:29.645Z,40.49
2023-04-05T16:10:57.037Z,40.35
2023-04-05T16:13:23.884Z,38.57
2023-04-05T16:15:50.565Z,37.68
2023-04-05T16:18:19.492Z,38.11
2023-04-05T16:20:45.992Z,38.14
2023-04-05T16:23:12.542Z,38.39
2023-04-05T16:25:39.057Z,37.69
2023-04-05T16:28:06.914Z,37.23
2023-04-05T16:30:33.589Z,37.18
2023-04-05T16:33:00.162Z,37.76
2023-04-05T16:35:26.669Z,38.19
2023-04-05T16:37:53.231Z,39.31
2023-04-05T16:40:19.726Z,40.26
2023-04-05T16:42:46.176Z,40.47
2023-04-05T16:45:12.640Z,40.83
2023-04-05T16:47:39.243Z,41.66
2023-04-05T16:50:06.581Z,42.01
2023-04-05T16:52:33.062Z,42.45
2023-04-05T16:54:59.613Z,43.26
2023-04-05T16:57:26.317Z,43.87
2023-04-05T16:59:53.015Z,44.55
2023-04-05T17:02:19.638Z,45.19
2023-04-05T17:04:46.960Z,44.67
2023-04-05T17:07:13.492Z,44.87
2023-04-05T17:09:39.969Z,45.63
2023-04-05T17:12:06.611Z,45.94
2023-04-05T17:14:35.748Z,46.00
2023-04-05T17:17:02.314Z,46.59
2023-04-05T17:19:28.998Z,46.71
2023-04-05T17:21:55.654Z,47.32
2023-04-05T17:24:22.368Z,47.45
2023-04-05T17:26:48.966Z,47.96
2023-04-05T17:29:17.568Z,48.23
2023-04-05T17:31:44.644Z,48.21
2023-04-05T17:34:13.421Z,48.67
2023-04-05T17:36:40.291Z,48.73
2023-04-05T17:39:07.190Z,48.38
2023-04-05T17:41:33.879Z,48.84
2023-04-05T17:44:00.400Z,48.52
2023-04-05T17:46:39.696Z,48.99
2023-04-05T17:49:08.116Z,49.00
2023-04-05T17:51:34.662Z,49.50
2023-04-05T17:54:01.432Z,49.83
2023-04-05T17:56:27.928Z,49.90
2023-04-05T17:58:54.395Z,49.88
2023-04-05T18:01:21.322Z,50.04
2023-04-05T18:03:47.981Z,50.18
2023-04-05T18:06:16.407Z,50.24
2023-04-05T18:08:42.975Z,51.03
2023-04-05T18:11:09.436Z,50.96
2023-04-05T18:13:36.148Z,50.89
2023-04-05T18:16:02.791Z,51.18
2023-04-05T18:18:29.374Z,51.14
2023-04-05T18:20:56.420Z,51.75
2023-04-05T18:23:24.775Z,51.46
2023-04-05T18:25:53.475Z,52.14
2023-04-05T18:28:23.180Z,52.13
2023-04-05T18:30:51.114Z,52.72
2023-04-05T18:33:18.251Z,52.41
2023-04-05T18:35:51.868Z,52.66
2023-04-05T18:38:19.470Z,53.13
2023-04-05T18:40:46.011Z,53.04
2023-04-05T18:43:12.796Z,52.99
2023-04-05T18:45:39.558Z,53.48
2023-04-05T18:48:06.287Z,53.72
2023-04-05T18:50:32.969Z,54.21
2023-04-05T18:52:59.461Z,54.43
2023-04-05T18:55:26.027Z,54.16
2023-04-05T18:57:52.508Z,54.31
2023-04-05T19:00:19.333Z,52.37
2023-04-05T19:02:45.898Z,51.40
2023-04-05T19:05:12.610Z,51.40
2023-04-05T19:07:39.291Z,50.57
2023-04-05T19:10:06.799Z,50.13
2023-04-05T19:12:33.307Z,49.92
2023-04-05T19:14:59.852Z,50.25
2023-04-05T19:17:26.565Z,49.98
2023-04-05T19:19:53.090Z,50.00
2023-04-05T19:22:19.522Z,50.07
2023-04-05T19:24:46.119Z,50.45
2023-04-05T19:27:12.688Z,50.47
2023-04-05T19:29:39.376Z,50.51
2023-04-05T19:32:06.934Z,50.92
2023-04-05T19:34:33.484Z,51.21
2023-04-05T19:37:00.858Z,51.26
2023-04-05T19:39:27.509Z,51.65
2023-04-05T19:41:54.059Z,52.19
2023-04-05T19:44:48.589Z,52.36
2023-04-05T19:47:18.472Z,53.21
2023-04-05T19:49:45.389Z,53.67
2023-04-05T19:52:33.364Z,53.76
2023-04-05T19:55:00.344Z,54.40
2023-04-05T19:57:27.780Z,54.71
2023-04-05T19:59:54.649Z,55.23
2023-04-05T20:02:37.089Z,54.98
2023-04-05T20:05:33.977Z,55.56
2023-04-05T20:08:00.532Z,56.01
2023-04-05T20:10:41.117Z,56.27
2023-04-05T20:13:08.280Z,56.87
2023-04-05T20:15:37.000Z,57.08
2023-04-05T20:18:08.701Z,57.19
2023-04-05T20:20:36.458Z,57.74
2023-04-05T20:23:06.946Z,57.29
2023-04-05T20:25:43.169Z,57.50
2023-04-05T20:28:36.445Z,57.42
2023-04-05T20:31:06.999Z,58.32
2023-04-05T20:33:44.251Z,58.46
2023-04-05T20:36:17.546Z,58.59
2023-04-05T20:38:45.934Z,58.50
2023-04-05T20:41:13.936Z,59.21
2023-04-05T20:43:41.883Z,59.04
2023-04-05T20:46:08.645Z,59.45
2023-04-05T20:48:36.411Z,59.96
2023-04-05T20:51:06.934Z,60.48
2023-04-05T20:53:34.165Z,60.47
2023-04-05T20:56:00.692Z,60.44
2023-04-05T20:58:27.796Z,60.46
2023-04-05T21:00:54.949Z,60.52
2023-04-05T21:03:21.985Z,60.95
2023-04-05T21:05:48.967Z,61.42
2023-04-05T21:08:16.261Z,61.49
2023-04-05T21:10:42.851Z,61.64
2023-04-05T21:13:09.354Z,62.09
2023-04-05T21:15:36.116Z,62.51
2023-04-05T21:18:04.445Z,62.09
2023-04-05T21:20:31.605Z,62.21
2023-04-05T21:22:58.779Z,61.96
2023-04-05T21:25:25.550Z,61.97
2023-04-05T21:27:52.243Z,62.06
2023-04-05T21:30:18.934Z,62.68
2023-04-05T21:32:45.515Z,62.64
2023-04-05T21:35:12.165Z,62.89
2023-04-05T21:37:38.705Z,63.04
2023-04-05T21:40:05.826Z,63.52
2023-04-05T21:42:32.946Z,63.27
2023-04-05T21:44:59.612Z,63.93
2023-04-05T21:47:26.087Z,63.98
2023-04-05T21:49:52.849Z,63.65
2023-04-05T21:52:19.419Z,64.14
2023-04-05T21:54:46.309Z,64.65
2023-04-05T21:57:12.808Z,64.37
2023-04-05T21:59:39.441Z,64.55
2023-04-05T22:02:07.378Z,65.12
2023-04-05T22:04:34.878Z,64.95
2023-04-05T22:07:01.330Z,65.23
2023-04-05T22:09:31.561Z,65.36
2023-04-05T22:11:58.668Z,63.89
2023-04-05T22:14:26.365Z,65.01
2023-04-05T22:16:53.439Z,65.55
2023-04-05T22:19:21.277Z,65.45
2023-04-05T22:21:47.931Z,65.55
2023-04-05T22:24:14.801Z,65.73
2023-04-05T22:26:42.221Z,65.97
2023-04-05T22:29:08.952Z,66.01
2023-04-05T22:31:35.985Z,66.45
2023-04-05T22:34:02.493Z,66.96
2023-04-05T22:36:29.057Z,66.94
2023-04-05T22:38:55.817Z,67.74
2023-04-05T22:41:22.278Z,67.47
2023-04-05T22:43:48.802Z,67.99
2023-04-05T22:46:15.346Z,68.43
2023-04-05T22:48:44.321Z,68.91
2023-04-05T22:51:11.165Z,68.48
2023-04-05T22:53:37.663Z,69.52
2023-04-05T22:56:04.230Z,69.33
2023-04-05T22:58:32.714Z,69.12
2023-04-05T23:00:59.633Z,70.23
2023-04-05T23:03:26.545Z,69.93
2023-04-05T23:05:52.987Z,70.38
2023-04-05T23:08:19.491Z,70.74
2023-04-05T23:10:47.000Z,71.09
2023-04-05T23:13:13.530Z,71.13
2023-04-05T23:15:40.070Z,71.50
2023-04-05T23:18:06.668Z,71.60
2023-04-05T23:20:33.130Z,71.69
2023-04-05T23:23:00.207Z,71.50
2023-04-05T23:25:26.786Z,71.56
2023-04-05T23:27:54.455Z,71.48
2023-04-05T23:30:21.112Z,72.03
2023-04-05T23:32:47.629Z,71.83
2023-04-05T23:35:15.395Z,72.04
2023-04-05T23:37:41.873Z,72.70
2023-04-05T23:40:09.011Z,72.37
2023-04-05T23:42:35.475Z,72.48
2023-04-05T23:45:04.176Z,72.58
2023-04-05T23:47:30.902Z,72.55
2023-04-05T23:49:57.452Z,72.96
2023-04-05T23:52:23.954Z,72.88
2023-04-05T23:54:50.656Z,72.48
2023-04-05T23:57:17.145Z,72.46
2023-04-05T23:59:43.683Z,73.20
